Time;durP1;ratioP1;P1;durP2;ratioP2;P2;SDS_P1;SDS_P2;PMS_P1;PMS_P2;Temp;Humidity;BMP_temperature;BMP_pressure;BME280_temperature;BME280_humidity;BME280_pressure;Samples;Min_cycle;Max_cycle;Signal;HPM_P1;HPM_P2
2023/12/10 00:00:28;;;;;;;17.23;4.55;;;;;;;9.58;77.04;99801.56;5053708;28;20023;-70
2023/12/10 00:02:53;;;;;;;22.15;4.72;;;;;;;9.59;77.29;99794.50;5056839;28;20028;-70
2023/12/10 00:05:19;;;;;;;20.85;3.58;;;;;;;9.64;76.88;99801.22;5060227;28;20029;-70
2023/12/10 00:07:44;;;;;;;24.15;3.58;;;;;;;9.69;77.15;99796.56;5055436;28;20028;-70
2023/12/10 00:10:10;;;;;;;21.23;3.55;;;;;;;9.68;77.03;99802.78;5060306;28;20037;-70
2023/12/10 00:12:35;;;;;;;16.17;2.70;;;;;;;9.71;76.71;99791.22;5054925;28;20025;-70
2023/12/10 00:15:00;;;;;;;17.65;3.88;;;;;;;9.72;76.52;99808.75;5060754;28;20039;-70
2023/12/10 00:17:26;;;;;;;18.23;3.53;;;;;;;9.75;76.45;99807.75;5060480;28;20025;-70
2023/12/10 00:19:52;;;;;;;16.77;3.50;;;;;;;9.82;75.36;99791.47;5057312;28;20036;-70
2023/12/10 00:22:17;;;;;;;24.67;4.13;;;;;;;9.86;75.54;99811.50;5059481;28;20147;-70
2023/12/10 00:24:42;;;;;;;18.13;3.35;;;;;;;9.88;75.80;99803.50;5060017;28;20113;-70
2023/12/10 00:27:08;;;;;;;24.40;4.70;;;;;;;9.77;76.35;99817.28;5062565;28;20046;-71
2023/12/10 00:29:34;;;;;;;23.50;4.00;;;;;;;9.81;75.45;99810.06;5058470;28;20025;-70
2023/12/10 00:31:59;;;;;;;16.75;4.38;;;;;;;9.87;75.31;99825.56;5059387;28;20031;-71
2023/12/10 00:34:25;;;;;;;17.70;3.42;;;;;;;9.89;74.66;99821.06;5056392;28;20116;-71
2023/12/10 00:36:50;;;;;;;23.63;3.45;;;;;;;9.92;74.68;99824.38;5049980;28;20025;-70
2023/12/10 00:39:16;;;;;;;22.27;3.53;;;;;;;9.90;74.38;99834.16;5054324;28;20034;-71
2023/12/10 00:41:41;;;;;;;21.52;3.13;;;;;;;9.92;74.57;99827.00;5055740;28;20029;-70
2023/12/10 00:44:07;;;;;;;17.65;3.63;;;;;;;9.83;75.49;99831.94;5054350;28;20037;-70
2023/12/10 00:46:33;;;;;;;18.25;3.45;;;;;;;9.85;75.66;99824.81;5058024;28;20032;-71
2023/12/10 00:48:58;;;;;;;12.45;2.67;;;;;;;9.80;75.06;99832.97;5057609;28;20028;-70
2023/12/10 00:51:24;;;;;;;15.75;3.67;;;;;;;9.83;74.92;99839.84;5063234;28;20028;-70
2023/12/10 00:53:50;;;;;;;16.63;3.28;;;;;;;9.87;74.06;99833.47;5059181;28;20675;-71
2023/12/10 00:56:16;;;;;;;20.58;4.20;;;;;;;9.77;75.19;99835.75;5061705;28;20028;-70
2023/12/10 00:58:41;;;;;;;18.35;3.17;;;;;;;9.79;75.53;99854.13;5061749;28;20083;-70
2023/12/10 01:01:10;;;;;;;17.80;3.95;;;;;;;9.74;76.22;99864.94;5053936;28;20032;-71
2023/12/10 01:03:36;;;;;;;19.60;3.92;;;;;;;9.65;76.47;99866.31;5063766;28;20043;-70
2023/12/10 01:06:03;;;;;;;18.00;4.22;;;;;;;9.65;75.66;99865.41;5057271;28;20492;-70
2023/12/10 01:08:29;;;;;;;15.55;3.03;;;;;;;9.68;76.38;99871.41;5052564;28;20656;-71
2023/12/10 01:10:54;;;;;;;12.18;2.42;;;;;;;9.58;76.48;99866.69;5054784;28;20033;-71
2023/12/10 01:13:21;;;;;;;19.77;2.80;;;;;;;9.55;76.36;99870.31;5062468;28;20020;-70
2023/12/10 01:15:46;;;;;;;12.98;3.20;;;;;;;9.48;78.30;99865.47;5061044;28;20025;-71
2023/12/10 01:18:12;;;;;;;19.98;3.45;;;;;;;9.46;77.23;99870.78;5056299;28;20019;-71
2023/12/10 01:20:37;;;;;;;18.88;2.83;;;;;;;9.48;76.76;99870.72;5052219;28;20042;-71
2023/12/10 01:23:04;;;;;;;14.13;3.13;;;;;;;9.51;77.02;99860.00;5059977;28;20024;-71
2023/12/10 01:25:29;;;;;;;21.23;3.30;;;;;;;9.49;77.24;99857.44;5060459;28;20078;-71
2023/12/10 01:27:55;;;;;;;15.15;2.65;;;;;;;9.48;77.46;99871.59;5058376;28;20036;-73
2023/12/10 01:30:23;;;;;;;16.27;2.50;;;;;;;9.49;76.75;99875.06;5061239;28;20036;-73
2023/12/10 01:32:56;;;;;;;18.35;3.20;;;;;;;9.47;77.50;99874.31;5061235;28;20027;-73
2023/12/10 01:35:21;;;;;;;14.00;2.80;;;;;;;9.50;76.44;99872.34;5060073;28;20070;-72
2023/12/10 01:37:47;;;;;;;18.15;3.08;;;;;;;9.54;76.45;99875.69;5057475;28;20025;-73
2023/12/10 01:40:13;;;;;;;18.33;3.30;;;;;;;9.49;77.21;99894.38;5058319;28;20040;-74
2023/12/10 01:42:40;;;;;;;17.70;2.90;;;;;;;9.52;77.06;99896.88;5054108;28;20029;-73
2023/12/10 01:45:06;;;;;;;17.70;2.92;;;;;;;9.55;77.60;99898.50;5057521;28;20581;-74
2023/12/10 01:47:35;;;;;;;23.88;4.07;;;;;;;9.46;78.28;99889.25;5055406;28;20104;-73
2023/12/10 01:50:04;;;;;;;19.90;4.90;;;;;;;9.08;87.52;99899.09;5056776;28;20028;-73
2023/12/10 01:52:31;;;;;;;15.80;2.70;;;;;;;9.06;85.59;99900.97;5057920;28;20454;-74
2023/12/10 01:54:58;;;;;;;14.82;3.28;;;;;;;9.24;81.32;99909.75;5060157;28;20464;-73
2023/12/10 01:57:24;;;;;;;15.55;2.53;;;;;;;9.31;80.40;99914.63;5065323;28;20496;-74
2023/12/10 01:59:50;;;;;;;23.17;3.63;;;;;;;9.25;80.17;99903.53;5057219;28;20052;-73
2023/12/10 02:02:16;;;;;;;14.07;3.28;;;;;;;9.25;81.39;99911.47;5053720;28;20099;-74
2023/12/10 02:04:41;;;;;;;10.95;2.28;;;;;;;9.19;81.32;99907.34;5057624;28;20115;-74
2023/12/10 02:07:07;;;;;;;14.57;2.42;;;;;;;9.19;79.60;99913.47;5058107;28;20029;-74
2023/12/10 02:09:32;;;;;;;12.95;2.30;;;;;;;9.16;80.86;99924.16;5056414;28;20045;-74
2023/12/10 02:11:57;;;;;;;12.07;3.35;;;;;;;9.08;79.97;99913.13;5057381;28;20033;-74
2023/12/10 02:14:23;;;;;;;12.57;2.80;;;;;;;9.12;80.38;99917.31;5062959;28;20025;-73
2023/12/10 02:16:48;;;;;;;11.95;2.70;;;;;;;9.05;80.18;99917.72;5055620;28;20032;-73
2023/12/10 02:19:13;;;;;;;17.08;3.08;;;;;;;9.01;80.17;99924.91;5055813;28;20112;-73
2023/12/10 02:21:44;;;;;;;15.30;2.42;;;;;;;9.01;80.32;99910.88;5060054;28;20080;-72
2023/12/10 02:24:14;;;;;;;23.15;3.55;;;;;;;8.91;81.61;99918.38;5056704;28;20123;-72
2023/12/10 02:26:39;;;;;;;11.70;2.40;;;;;;;8.92;81.39;99925.34;5055168;28;20087;-72
2023/12/10 02:29:05;;;;;;;9.15;1.80;;;;;;;8.93;80.39;99941.09;5059969;28;20032;-72
2023/12/10 02:31:31;;;;;;;19.08;2.95;;;;;;;8.91;80.74;99940.31;5062218;28;20028;-72
2023/12/10 02:33:56;;;;;;;16.25;3.15;;;;;;;8.99;78.84;99924.13;5061160;28;20025;-72
2023/12/10 02:36:22;;;;;;;17.70;2.70;;;;;;;8.99;79.89;99934.66;5056050;28;20036;-70
2023/12/10 02:38:48;;;;;;;17.70;2.60;;;;;;;9.01;80.08;99946.00;5054924;28;20025;-72
2023/12/10 02:41:14;;;;;;;11.80;2.25;;;;;;;9.03;79.18;99935.38;5062937;28;20150;-72
2023/12/10 02:43:39;;;;;;;19.17;2.78;;;;;;;9.03;79.04;99940.66;5055076;28;20373;-72
2023/12/10 02:46:05;;;;;;;12.60;4.10;;;;;;;9.05;78.86;99946.72;5055891;28;20031;-73
2023/12/10 02:48:30;;;;;;;18.20;3.20;;;;;;;9.03;78.38;99938.84;5059786;28;20033;-70
2023/12/10 02:50:55;;;;;;;16.73;2.95;;;;;;;9.05;77.68;99944.94;5056955;28;20028;-70
2023/12/10 02:53:21;;;;;;;11.85;2.17;;;;;;;9.05;78.71;99941.44;5064570;28;20542;-70
2023/12/10 02:55:46;;;;;;;18.60;3.03;;;;;;;9.01;78.13;99953.06;5060939;28;20047;-70
2023/12/10 02:58:12;;;;;;;16.30;2.47;;;;;;;9.10;78.36;99953.47;5055014;28;20033;-72
2023/12/10 03:00:37;;;;;;;22.83;3.03;;;;;;;9.05;77.06;99959.91;5065795;28;20132;-72
2023/12/10 03:03:03;;;;;;;18.80;3.05;;;;;;;9.12;76.63;99956.88;5063149;28;20024;-72
2023/12/10 03:05:28;;;;;;;15.48;2.60;;;;;;;9.19;77.57;99957.44;5060256;28;20035;-73
2023/12/10 03:07:53;;;;;;;10.95;2.05;;;;;;;9.09;78.66;99966.72;5059266;28;20496;-72
2023/12/10 03:10:20;;;;;;;12.52;2.25;;;;;;;9.08;79.35;99972.91;5066466;28;20083;-73
2023/12/10 03:12:45;;;;;;;19.98;2.78;;;;;;;9.08;79.52;99965.84;5063141;28;20031;-73
2023/12/10 03:15:11;;;;;;;15.15;3.00;;;;;;;9.05;79.33;99962.53;5059045;28;20028;-73
2023/12/10 03:17:36;;;;;;;12.48;2.28;;;;;;;9.06;78.71;99975.63;5063423;28;20054;-73
2023/12/10 03:20:03;;;;;;;14.25;2.90;;;;;;;9.13;77.14;99965.63;5061950;28;20437;-72
2023/12/10 03:22:29;;;;;;;20.55;3.17;;;;;;;9.11;77.97;99976.28;5064779;28;20545;-73
2023/12/10 03:24:54;;;;;;;12.90;2.70;;;;;;;9.22;77.93;99970.47;5066735;28;20029;-73
2023/12/10 03:27:19;;;;;;;17.20;3.13;;;;;;;9.25;76.79;99982.66;5061434;28;20334;-73
2023/12/10 03:29:45;;;;;;;17.27;2.35;;;;;;;9.23;76.54;99979.22;5061471;28;20456;-72
2023/12/10 03:32:10;;;;;;;12.93;2.88;;;;;;;9.19;77.80;99989.94;5065283;28;20028;-73
2023/12/10 03:34:35;;;;;;;16.55;2.58;;;;;;;9.22;76.18;99988.06;5063338;28;20028;-74
2023/12/10 03:37:01;;;;;;;8.05;2.22;;;;;;;9.22;76.57;99991.56;5061009;28;20517;-72
2023/12/10 03:39:26;;;;;;;7.95;1.90;;;;;;;9.27;76.46;99999.25;5059061;28;20031;-72
2023/12/10 03:41:52;;;;;;;9.27;1.98;;;;;;;9.28;75.53;100003.59;5057446;28;20481;-72
2023/12/10 03:44:20;;;;;;;10.93;2.05;;;;;;;9.41;73.70;100004.72;5064328;28;20029;-73
2023/12/10 03:46:45;;;;;;;10.70;2.20;;;;;;;9.45;73.52;100003.63;5061093;28;20426;-72
2023/12/10 03:49:11;;;;;;;14.80;2.72;;;;;;;9.47;72.49;100006.22;5063751;28;20032;-72
2023/12/10 03:51:36;;;;;;;13.55;2.85;;;;;;;9.50;73.09;100003.41;5056256;28;20108;-72
2023/12/10 03:54:01;;;;;;;13.32;2.40;;;;;;;9.48;73.16;100011.41;5063940;28;20408;-73
2023/12/10 03:56:27;;;;;;;11.60;1.88;;;;;;;9.56;72.18;100021.56;5025149;28;1128449;-73
2023/12/10 03:58:52;;;;;;;15.57;3.40;;;;;;;9.51;72.54;100024.44;5063115;28;20121;-73
2023/12/10 04:01:18;;;;;;;11.20;2.47;;;;;;;9.51;71.93;100011.25;5056250;28;20086;-72
2023/12/10 04:03:43;;;;;;;14.20;2.47;;;;;;;9.53;71.20;100012.03;5066455;28;20033;-72
2023/12/10 04:06:08;;;;;;;13.15;2.63;;;;;;;9.55;71.51;100004.91;5054088;28;20016;-72
2023/12/10 04:08:34;;;;;;;12.70;2.78;;;;;;;9.56;70.95;100014.53;5058757;28;20028;-72
2023/12/10 04:10:59;;;;;;;17.25;3.00;;;;;;;9.60;71.87;100028.41;5065066;28;20025;-72
2023/12/10 04:13:25;;;;;;;14.32;2.20;;;;;;;9.57;71.17;100013.59;5055729;28;20041;-72
2023/12/10 04:15:50;;;;;;;10.80;2.20;;;;;;;9.60;71.04;100036.34;5063149;28;20021;-71
2023/12/10 04:18:16;;;;;;;8.52;1.90;;;;;;;9.61;70.77;100038.06;5064097;28;20032;-74
2023/12/10 04:20:42;;;;;;;14.43;3.22;;;;;;;9.63;70.38;100054.66;5063106;28;20028;-73
2023/12/10 04:23:08;;;;;;;15.50;3.15;;;;;;;9.69;70.54;100051.72;5064061;28;20642;-72
2023/12/10 04:25:33;;;;;;;14.20;2.88;;;;;;;9.69;70.12;100055.22;5061424;28;20136;-72
2023/12/10 04:27:58;;;;;;;15.50;2.80;;;;;;;9.69;69.91;100070.19;5055479;28;20025;-71
2023/12/10 04:30:24;;;;;;;12.77;2.90;;;;;;;9.68;70.16;100074.63;5061871;28;20483;-71
2023/12/10 04:32:50;;;;;;;10.57;2.38;;;;;;;9.73;69.54;100055.91;5073303;28;20028;-72
2023/12/10 04:35:15;;;;;;;12.98;2.42;;;;;;;9.74;70.35;100062.06;5064923;28;20115;-72
2023/12/10 04:37:41;;;;;;;12.57;2.50;;;;;;;9.75;69.73;100058.50;5059378;28;20029;-72
2023/12/10 04:40:07;;;;;;;17.55;3.28;;;;;;;9.78;69.12;100079.44;5057798;28;20106;-71
2023/12/10 04:42:33;;;;;;;13.07;2.60;;;;;;;9.77;69.40;100088.31;5060283;28;20025;-71
2023/12/10 04:44:58;;;;;;;12.32;2.10;;;;;;;9.80;69.56;100089.03;5060228;28;20091;-72
2023/12/10 04:47:24;;;;;;;12.90;2.22;;;;;;;9.79;68.36;100070.59;5050885;28;20029;-73
2023/12/10 04:49:49;;;;;;;11.70;2.35;;;;;;;9.82;68.79;100088.94;5053543;28;20037;-72
2023/12/10 04:52:14;;;;;;;16.00;2.65;;;;;;;9.78;68.84;100082.94;5064198;28;20030;-72
2023/12/10 04:54:40;;;;;;;10.80;2.30;;;;;;;9.79;68.72;100102.28;5063656;28;20115;-72
2023/12/10 04:57:05;;;;;;;13.18;2.28;;;;;;;9.82;68.21;100112.69;5056603;28;20041;-71
2023/12/10 04:59:31;;;;;;;10.40;1.90;;;;;;;9.82;68.55;100110.06;5065401;28;20109;-71
2023/12/10 05:01:56;;;;;;;11.32;2.30;;;;;;;9.84;67.84;100108.19;5063022;28;20028;-72
2023/12/10 05:04:21;;;;;;;17.23;3.20;;;;;;;9.88;68.14;100104.47;5060064;28;20070;-72
2023/12/10 05:06:47;;;;;;;14.88;2.25;;;;;;;9.91;67.73;100096.41;5052689;28;20473;-72
2023/12/10 05:09:13;;;;;;;10.27;1.90;;;;;;;9.86;68.54;100130.09;5057915;28;20040;-71
2023/12/10 05:11:38;;;;;;;9.88;2.15;;;;;;;9.86;68.17;100124.81;5057208;28;20025;-71
2023/12/10 05:14:05;;;;;;;14.48;2.80;;;;;;;9.85;68.51;100136.31;5058741;28;20028;-71
2023/12/10 05:16:31;;;;;;;13.63;3.35;;;;;;;9.84;67.85;100131.94;5062135;28;20542;-72
2023/12/10 05:18:56;;;;;;;17.02;2.63;;;;;;;9.81;68.16;100145.31;5061979;28;20036;-72
2023/12/10 05:21:21;;;;;;;16.13;3.25;;;;;;;9.91;68.21;100154.50;5057491;28;20111;-72
2023/12/10 05:23:47;;;;;;;8.57;2.47;;;;;;;9.90;67.55;100158.06;5061602;28;20048;-72
2023/12/10 05:26:12;;;;;;;12.02;1.92;;;;;;;9.85;67.72;100170.63;5051214;28;20250;-72
2023/12/10 05:28:37;;;;;;;10.65;2.28;;;;;;;9.91;67.11;100151.84;5062062;28;20028;-72
2023/12/10 05:31:03;;;;;;;10.80;1.92;;;;;;;9.91;68.12;100175.63;5055178;28;20130;-72
2023/12/10 05:33:28;;;;;;;10.77;2.97;;;;;;;9.87;67.37;100161.69;5058965;28;20023;-72
2023/12/10 05:35:54;;;;;;;12.98;2.47;;;;;;;9.93;67.81;100164.06;5060373;28;20437;-72
2023/12/10 05:38:19;;;;;;;14.48;2.53;;;;;;;9.94;68.15;100178.13;5059713;28;20024;-72
2023/12/10 05:40:44;;;;;;;13.70;2.10;;;;;;;9.92;67.34;100177.31;5057507;28;20484;-71
2023/12/10 05:43:10;;;;;;;22.80;4.15;;;;;;;9.94;67.65;100173.69;5060563;28;20029;-72
2023/12/10 05:45:35;;;;;;;7.53;2.15;;;;;;;9.93;67.15;100193.09;5056772;28;20025;-72
2023/12/10 05:48:01;;;;;;;9.80;2.55;;;;;;;10.01;67.08;100170.75;5056434;28;20121;-72
2023/12/10 05:50:26;;;;;;;20.95;3.28;;;;;;;9.99;66.91;100168.19;5054935;28;20021;-72
2023/12/10 05:52:52;;;;;;;13.35;2.38;;;;;;;9.97;67.30;100204.34;5057186;28;20043;-73
2023/12/10 05:55:17;;;;;;;11.55;2.58;;;;;;;10.01;67.22;100186.59;5060269;28;20091;-72
2023/12/10 05:57:42;;;;;;;15.18;2.92;;;;;;;10.00;67.30;100195.44;5056195;28;20060;-72
2023/12/10 06:00:08;;;;;;;18.20;3.00;;;;;;;9.95;67.58;100214.16;5062132;28;20032;-73
2023/12/10 06:02:33;;;;;;;9.10;2.50;;;;;;;9.95;67.61;100217.63;5052084;28;20495;-72
2023/12/10 06:04:59;;;;;;;17.85;2.53;;;;;;;9.93;67.33;100231.81;5060099;28;20024;-72
2023/12/10 06:07:24;;;;;;;11.68;2.42;;;;;;;9.96;67.64;100224.63;5058337;28;20036;-72
2023/12/10 06:09:50;;;;;;;12.80;2.55;;;;;;;9.92;67.20;100232.75;5059789;28;20032;-72
2023/12/10 06:12:16;;;;;;;9.23;2.60;;;;;;;9.87;68.01;100232.97;5056368;28;20035;-71
2023/12/10 06:14:41;;;;;;;14.02;2.78;;;;;;;9.85;68.33;100240.13;5056379;28;20024;-72
2023/12/10 06:17:09;;;;;;;12.65;2.55;;;;;;;9.90;67.81;100248.69;5055093;28;20531;-72
2023/12/10 06:19:34;;;;;;;19.85;2.67;;;;;;;9.90;67.99;100253.13;5058675;28;20025;-72
2023/12/10 06:22:01;;;;;;;19.42;2.78;;;;;;;9.88;68.49;100244.41;5055442;28;20028;-72
2023/12/10 06:24:26;;;;;;;15.10;2.67;;;;;;;9.83;67.61;100256.94;5058590;28;20047;-73
2023/12/10 06:26:52;;;;;;;10.43;2.63;;;;;;;9.87;67.88;100258.53;5054815;28;20116;-72
2023/12/10 06:29:17;;;;;;;15.27;2.53;;;;;;;9.91;67.48;100271.53;5055656;28;20032;-73
2023/12/10 06:31:43;;;;;;;18.23;2.25;;;;;;;9.89;67.94;100283.09;5056277;28;20031;-72
2023/12/10 06:34:08;;;;;;;13.05;2.00;;;;;;;9.91;67.42;100302.34;5059839;28;20121;-73
2023/12/10 06:36:35;;;;;;;17.35;2.80;;;;;;;9.90;67.89;100298.84;5057920;28;20031;-72
2023/12/10 06:39:00;;;;;;;8.38;1.60;;;;;;;9.87;68.50;100300.78;5053061;28;20426;-72
2023/12/10 06:41:25;;;;;;;14.77;2.78;;;;;;;9.83;67.89;100297.41;5049291;28;20028;-73
2023/12/10 06:43:51;;;;;;;10.05;2.35;;;;;;;9.87;68.47;100313.97;5057217;28;20086;-72
2023/12/10 06:46:17;;;;;;;16.90;2.85;;;;;;;9.84;68.17;100304.44;5053174;28;20031;-72
2023/12/10 06:48:43;;;;;;;12.77;2.78;;;;;;;9.88;68.13;100326.25;5055691;28;20031;-72
2023/12/10 06:51:08;;;;;;;12.55;2.75;;;;;;;9.89;67.75;100336.75;5063168;28;20115;-73
2023/12/10 06:53:34;;;;;;;14.90;2.85;;;;;;;9.87;68.03;100343.03;5062017;28;20055;-72
2023/12/10 06:55:59;;;;;;;16.38;2.50;;;;;;;9.86;68.61;100343.94;5057502;28;20514;-73
2023/12/10 06:58:25;;;;;;;16.65;2.53;;;;;;;9.83;68.48;100347.56;5058715;28;20044;-72
2023/12/10 07:00:50;;;;;;;17.60;2.55;;;;;;;9.87;68.47;100359.72;5060156;28;20021;-73
2023/12/10 07:03:16;;;;;;;17.10;2.30;;;;;;;9.83;69.12;100355.50;5059844;28;20580;-72
2023/12/10 07:05:41;;;;;;;12.02;2.90;;;;;;;9.83;68.80;100359.91;5058339;28;20092;-73
2023/12/10 07:08:06;;;;;;;14.73;2.08;;;;;;;9.82;68.68;100369.63;5059380;28;20029;-72
2023/12/10 07:10:32;;;;;;;17.38;2.25;;;;;;;9.83;67.82;100373.97;5067316;28;20017;-72
2023/12/10 07:12:58;;;;;;;19.52;3.30;;;;;;;9.84;68.54;100381.00;5058700;28;20392;-72
2023/12/10 07:15:23;;;;;;;18.38;2.97;;;;;;;9.83;67.65;100378.41;5058403;28;20029;-73
2023/12/10 07:17:49;;;;;;;15.13;2.75;;;;;;;9.84;67.99;100375.72;5061530;28;20047;-72
2023/12/10 07:20:14;;;;;;;11.73;2.22;;;;;;;9.86;68.01;100360.66;5063027;28;20447;-72
2023/12/10 07:22:41;;;;;;;10.13;2.30;;;;;;;9.86;67.32;100376.50;5059041;28;20029;-72
2023/12/10 07:25:07;;;;;;;7.03;1.98;;;;;;;9.87;67.84;100398.47;5061532;28;20029;-72
2023/12/10 07:27:32;;;;;;;13.25;2.28;;;;;;;9.88;67.43;100390.47;5058626;28;20107;-72
2023/12/10 07:29:58;;;;;;;14.52;2.63;;;;;;;9.86;67.07;100389.69;5058806;28;20029;-72
2023/12/10 07:32:24;;;;;;;14.38;2.00;;;;;;;9.91;67.21;100406.19;5061508;28;20025;-72
2023/12/10 07:34:49;;;;;;;15.82;2.97;;;;;;;9.84;67.94;100412.69;5064669;28;20024;-72
2023/12/10 07:37:15;;;;;;;12.45;2.55;;;;;;;9.86;66.76;100415.25;5053849;28;20074;-72
2023/12/10 07:39:40;;;;;;;13.85;2.40;;;;;;;9.88;67.35;100423.94;5058904;28;20023;-72
2023/12/10 07:42:06;;;;;;;13.13;2.60;;;;;;;9.89;66.46;100437.09;5057253;28;20557;-73
2023/12/10 07:44:31;;;;;;;16.88;2.35;;;;;;;9.89;66.79;100425.69;5060527;28;20094;-72
2023/12/10 07:46:58;;;;;;;19.50;2.80;;;;;;;9.94;66.70;100456.22;5069414;28;20067;-73
2023/12/10 07:49:23;;;;;;;15.60;2.83;;;;;;;9.96;66.87;100459.66;5065139;28;20028;-73
2023/12/10 07:51:48;;;;;;;12.88;3.42;;;;;;;9.92;67.04;100467.78;5068878;28;20024;-72
2023/12/10 07:54:14;;;;;;;18.50;3.08;;;;;;;9.85;67.65;100475.09;5065463;28;20028;-72
2023/12/10 07:56:40;;;;;;;15.88;3.05;;;;;;;9.89;67.09;100465.28;5061787;28;20049;-72
2023/12/10 07:59:05;;;;;;;10.15;2.22;;;;;;;9.85;68.09;100471.63;5061168;28;20388;-72
2023/12/10 08:01:30;;;;;;;14.40;2.67;;;;;;;9.78;69.27;100478.06;5053021;28;20071;-72
2023/12/10 08:03:56;;;;;;;10.45;2.47;;;;;;;9.79;68.55;100477.13;5058844;28;20508;-72
2023/12/10 08:06:21;;;;;;;7.20;1.80;;;;;;;9.82;68.06;100487.56;5057795;28;20098;-72
2023/12/10 08:08:46;;;;;;;12.38;2.55;;;;;;;9.80;68.41;100485.00;5064395;28;20104;-72
2023/12/10 08:11:12;;;;;;;14.23;2.97;;;;;;;9.82;68.85;100498.13;5058544;28;20045;-73
2023/12/10 08:13:38;;;;;;;15.88;3.83;;;;;;;9.77;69.17;100490.41;5058233;28;20039;-72
2023/12/10 08:16:04;;;;;;;10.95;2.35;;;;;;;9.79;69.53;100504.44;5062033;28;20384;-73
2023/12/10 08:18:30;;;;;;;14.10;2.55;;;;;;;9.76;69.68;100506.31;5058827;28;20103;-72
2023/12/10 08:20:55;;;;;;;16.60;2.63;;;;;;;9.75;70.04;100505.47;5062876;28;20120;-72
2023/12/10 08:23:21;;;;;;;19.85;3.22;;;;;;;9.72;70.35;100497.66;5059069;28;20031;-72
2023/12/10 08:25:46;;;;;;;14.55;2.60;;;;;;;9.75;70.28;100513.38;5061159;28;20064;-72
2023/12/10 08:28:11;;;;;;;24.48;3.58;;;;;;;9.76;70.49;100524.81;5052680;28;20025;-72
2023/12/10 08:30:37;;;;;;;15.65;2.28;;;;;;;9.74;71.60;100529.28;5059801;28;20033;-72
2023/12/10 08:33:02;;;;;;;14.43;2.88;;;;;;;9.71;70.90;100532.91;5062220;28;20025;-72
2023/12/10 08:35:28;;;;;;;10.80;2.65;;;;;;;9.74;71.45;100537.19;5062121;28;20028;-72
2023/12/10 08:37:53;;;;;;;16.30;2.30;;;;;;;9.75;71.20;100531.88;5060919;28;20558;-72
2023/12/10 08:40:18;;;;;;;14.13;3.00;;;;;;;9.70;71.49;100537.34;5062292;28;20036;-71
2023/12/10 08:42:44;;;;;;;10.95;3.40;;;;;;;9.73;71.92;100530.19;5058960;28;20392;-72
2023/12/10 08:45:11;;;;;;;15.95;2.10;;;;;;;9.73;72.02;100541.63;5057073;28;20021;-72
2023/12/10 08:47:37;;;;;;;14.82;2.90;;;;;;;9.75;71.77;100546.84;5055025;28;20278;-72
2023/12/10 08:50:03;;;;;;;13.93;2.85;;;;;;;9.77;71.91;100547.63;5060383;28;20392;-72
2023/12/10 08:52:28;;;;;;;15.30;3.08;;;;;;;9.84;71.58;100544.69;5056606;28;20053;-72
2023/12/10 08:54:54;;;;;;;15.02;2.60;;;;;;;9.83;71.70;100552.66;5057576;28;20495;-72
2023/12/10 08:57:21;;;;;;;15.98;2.70;;;;;;;9.97;71.85;100545.88;5058369;28;20044;-72
2023/12/10 08:59:46;;;;;;;15.25;2.10;;;;;;;10.16;70.90;100551.22;5053525;28;20081;-72
2023/12/10 09:02:12;;;;;;;14.65;2.25;;;;;;;10.25;70.92;100557.06;5061394;28;20391;-72
2023/12/10 09:04:37;;;;;;;11.60;2.40;;;;;;;10.31;71.10;100564.75;5055143;28;20025;-72
2023/12/10 09:07:02;;;;;;;16.00;3.15;;;;;;;10.44;70.34;100568.53;5054406;28;20025;-72
2023/12/10 09:09:28;;;;;;;16.92;3.10;;;;;;;10.44;69.62;100574.72;5054833;28;20036;-72
2023/12/10 09:11:53;;;;;;;14.57;2.13;;;;;;;10.36;69.93;100568.03;5061307;28;20064;-72
2023/12/10 09:14:19;;;;;;;16.27;3.13;;;;;;;10.29;71.06;100578.00;5057395;28;20029;-72
2023/12/10 09:16:47;;;;;;;14.25;2.90;;;;;;;10.27;71.34;100589.59;5060386;28;20031;-72
2023/12/10 09:19:13;;;;;;;20.52;3.85;;;;;;;10.15;70.87;100577.72;5069823;28;20068;-72
2023/12/10 09:21:39;;;;;;;14.57;2.92;;;;;;;10.06;71.26;100576.31;5062639;28;20044;-72
2023/12/10 09:24:05;;;;;;;17.95;2.90;;;;;;;10.10;71.33;100567.34;5055566;28;20058;-72
2023/12/10 09:26:30;;;;;;;15.13;2.50;;;;;;;10.13;71.68;100580.44;5059723;28;20024;-72
2023/12/10 09:28:56;;;;;;;16.55;2.63;;;;;;;10.20;71.23;100584.50;5064380;28;20028;-72
2023/12/10 09:31:21;;;;;;;19.30;3.08;;;;;;;10.23;71.67;100588.81;5055599;28;20031;-72
2023/12/10 09:33:48;;;;;;;20.73;3.60;;;;;;;10.18;71.41;100581.09;5055077;28;20495;-72
2023/12/10 09:36:16;;;;;;;16.13;2.70;;;;;;;10.22;71.53;100581.81;5059701;28;20062;-72
2023/12/10 09:38:42;;;;;;;11.95;2.33;;;;;;;10.30;71.81;100579.72;5063363;28;20024;-70
2023/12/10 09:41:07;;;;;;;19.17;3.28;;;;;;;10.49;71.29;100577.13;5065011;28;20494;-70
2023/12/10 09:43:33;;;;;;;17.77;3.53;;;;;;;10.59;71.10;100591.69;5060045;28;20021;-70
2023/12/10 09:46:00;;;;;;;14.07;2.33;;;;;;;10.54;70.88;100584.84;5056434;28;20025;-71
2023/12/10 09:48:25;;;;;;;13.68;2.70;;;;;;;10.46;70.65;100591.34;5052795;28;20036;-70
2023/12/10 09:50:51;;;;;;;18.05;3.05;;;;;;;10.44;71.11;100587.94;5058682;28;20028;-70
2023/12/10 09:53:16;;;;;;;21.80;3.05;;;;;;;10.47;71.81;100600.13;5063558;28;20387;-70
2023/12/10 09:55:42;;;;;;;13.50;2.80;;;;;;;10.70;71.25;100576.19;5060908;28;20021;-70
2023/12/10 09:58:07;;;;;;;14.73;3.25;;;;;;;10.82;71.06;100577.44;5057306;28;20098;-70
2023/12/10 10:00:33;;;;;;;16.23;2.80;;;;;;;10.80;70.55;100578.41;5058163;28;20142;-71
2023/12/10 10:03:02;;;;;;;17.02;3.22;;;;;;;10.70;70.67;100578.84;5049686;28;20116;-70
2023/12/10 10:05:28;;;;;;;14.05;3.10;;;;;;;10.55;71.63;100590.09;5060693;28;20020;-70
2023/12/10 10:07:53;;;;;;;13.85;2.47;;;;;;;10.58;71.69;100583.81;5056832;28;20119;-72
2023/12/10 10:10:22;;;;;;;18.17;2.38;;;;;;;10.64;72.16;100579.13;5060166;28;20107;-72
2023/12/10 10:12:49;;;;;;;16.75;2.75;;;;;;;11.04;71.10;100582.59;5056632;28;20020;-72
2023/12/10 10:15:14;;;;;;;16.55;3.30;;;;;;;11.46;70.21;100581.50;5057001;28;20115;-72
2023/12/10 10:17:42;;;;;;;13.10;2.78;;;;;;;11.79;68.19;100580.78;5063126;28;20099;-72
2023/12/10 10:20:09;;;;;;;16.02;3.30;;;;;;;12.75;65.69;100571.41;5056104;28;20476;-72
2023/12/10 10:22:35;;;;;;;17.73;3.70;;;;;;;13.17;64.03;100571.81;5060284;28;20103;-72
2023/12/10 10:25:01;;;;;;;18.63;4.00;;;;;;;14.21;61.89;100585.34;5052331;28;20204;-72
2023/12/10 10:27:26;;;;;;;13.10;2.75;;;;;;;14.62;58.56;100566.06;5055915;28;20025;-72
2023/12/10 10:29:55;;;;;;;17.30;2.58;;;;;;;15.37;57.39;100563.13;5063133;28;20475;-72
2023/12/10 10:32:22;;;;;;;11.80;2.35;;;;;;;16.37;54.19;100568.03;5061809;28;20442;-72
2023/12/10 10:34:49;;;;;;;14.40;2.60;;;;;;;16.37;52.93;100562.72;5064378;28;20137;-72
2023/12/10 10:37:15;;;;;;;10.85;2.40;;;;;;;16.29;54.21;100572.09;5061635;28;21241;-71
2023/12/10 10:39:41;;;;;;;13.20;2.67;;;;;;;15.95;52.78;100573.53;5063076;28;20024;-72
2023/12/10 10:42:08;;;;;;;15.30;3.30;;;;;;;15.86;54.27;100589.28;5058146;28;20271;-72
2023/12/10 10:44:35;;;;;;;10.80;2.72;;;;;;;16.48;53.31;100602.88;5058702;28;20044;-72
2023/12/10 10:47:03;;;;;;;10.73;2.55;;;;;;;16.96;51.31;100581.75;5064955;28;20035;-73
2023/12/10 10:49:31;;;;;;;10.10;2.17;;;;;;;17.66;50.53;100579.31;5063237;28;20033;-72
2023/12/10 10:51:58;;;;;;;12.85;2.63;;;;;;;18.08;48.31;100579.78;5065718;28;20051;-73
2023/12/10 10:54:24;;;;;;;14.73;2.85;;;;;;;18.03;47.77;100574.78;5062571;28;20033;-73
2023/12/10 10:56:50;;;;;;;11.30;2.65;;;;;;;17.57;48.73;100577.31;5060977;28;20733;-73
2023/12/10 10:59:32;;;;;;;14.48;2.95;;;;;;;16.87;50.87;100583.25;5069202;28;20111;-72
2023/12/10 11:02:04;;;;;;;13.52;2.50;;;;;;;16.75;51.28;100562.78;5057220;28;20037;-72
2023/12/10 11:04:40;;;;;;;13.70;2.22;;;;;;;16.77;51.84;100556.34;5065118;28;20036;-72
2023/12/10 11:07:06;;;;;;;14.48;2.40;;;;;;;15.98;52.08;100569.78;5053909;28;20029;-72
2023/12/10 11:09:32;;;;;;;12.70;2.95;;;;;;;15.34;54.33;100566.00;5058098;28;20096;-73
2023/12/10 11:11:58;;;;;;;10.85;2.75;;;;;;;14.73;55.62;100557.41;5060448;28;20507;-73
2023/12/10 11:14:25;;;;;;;11.38;2.30;;;;;;;15.27;54.73;100553.06;5066545;28;20031;-73
2023/12/10 11:16:58;;;;;;;14.18;2.90;;;;;;;14.81;55.71;100541.81;5064634;28;20027;-73
2023/12/10 11:19:24;;;;;;;10.88;2.42;;;;;;;13.83;57.91;100550.38;5064920;28;20017;-73